sensor_id;sensor_type;location;lat;lon;timestamp;P1;durP1;ratioP1;P2;durP2;ratioP2
6089;SDS011;3073;42.660;23.316;2023-09-30T00:00:55;13.67;;;7.00;;
6089;SDS011;3073;42.660;23.316;2023-09-30T00:03:24;19.30;;;7.50;;
6089;SDS011;3073;42.660;23.316;2023-09-30T00:05:51;27.37;;;8.30;;
6089;SDS011;3073;42.660;23.316;2023-09-30T00:08:18;12.83;;;7.03;;
6089;SDS011;3073;42.660;23.316;2023-09-30T00:10:45;17.40;;;6.80;;
6089;SDS011;3073;42.660;23.316;2023-09-30T00:13:12;11.57;;;6.73;;
6089;SDS011;3073;42.660;23.316;2023-09-30T00:15:39;14.60;;;6.53;;
6089;SDS011;3073;42.660;23.316;2023-09-30T00:18:06;44.73;;;6.40;;
6089;SDS011;3073;42.660;23.316;2023-09-30T00:20:34;11.03;;;6.83;;
6089;SDS011;3073;42.660;23.316;2023-09-30T00:23:01;18.40;;;7.53;;
6089;SDS011;3073;42.660;23.316;2023-09-30T00:25:31;13.07;;;7.43;;
6089;SDS011;3073;42.660;23.316;2023-09-30T00:27:58;14.17;;;6.37;;
6089;SDS011;3073;42.660;23.316;2023-09-30T00:30:24;13.93;;;6.77;;
6089;SDS011;3073;42.660;23.316;2023-09-30T00:32:51;15.47;;;7.40;;
6089;SDS011;3073;42.660;23.316;2023-09-30T00:35:18;9.87;;;6.50;;
6089;SDS011;3073;42.660;23.316;2023-09-30T00:37:46;15.67;;;7.10;;
6089;SDS011;3073;42.660;23.316;2023-09-30T00:40:13;21.73;;;7.97;;
6089;SDS011;3073;42.660;23.316;2023-09-30T00:42:40;16.23;;;7.77;;
6089;SDS011;3073;42.660;23.316;2023-09-30T00:45:08;25.63;;;8.73;;
6089;SDS011;3073;42.660;23.316;2023-09-30T00:47:35;24.17;;;6.70;;
6089;SDS011;3073;42.660;23.316;2023-09-30T00:50:03;26.40;;;7.80;;
6089;SDS011;3073;42.660;23.316;2023-09-30T00:52:33;28.07;;;7.30;;
6089;SDS011;3073;42.660;23.316;2023-09-30T00:55:03;18.93;;;6.97;;
6089;SDS011;3073;42.660;23.316;2023-09-30T00:57:32;15.80;;;6.27;;
6089;SDS011;3073;42.660;23.316;2023-09-30T01:00:01;15.70;;;7.60;;
6089;SDS011;3073;42.660;23.316;2023-09-30T01:02:29;20.20;;;6.80;;
6089;SDS011;3073;42.660;23.316;2023-09-30T01:04:56;22.30;;;7.50;;
6089;SDS011;3073;42.660;23.316;2023-09-30T01:07:24;14.03;;;7.10;;
6089;SDS011;3073;42.660;23.316;2023-09-30T01:09:51;15.63;;;6.87;;
6089;SDS011;3073;42.660;23.316;2023-09-30T01:12:20;16.43;;;6.90;;
6089;SDS011;3073;42.660;23.316;2023-09-30T01:14:47;12.50;;;6.90;;
6089;SDS011;3073;42.660;23.316;2023-09-30T01:17:14;23.20;;;7.50;;
6089;SDS011;3073;42.660;23.316;2023-09-30T01:19:40;15.80;;;6.60;;
6089;SDS011;3073;42.660;23.316;2023-09-30T01:22:09;10.83;;;6.37;;
6089;SDS011;3073;42.660;23.316;2023-09-30T01:24:41;22.77;;;8.13;;
6089;SDS011;3073;42.660;23.316;2023-09-30T01:27:12;15.80;;;6.43;;
6089;SDS011;3073;42.660;23.316;2023-09-30T01:29:41;13.90;;;6.80;;
6089;SDS011;3073;42.660;23.316;2023-09-30T01:32:08;21.03;;;6.83;;
6089;SDS011;3073;42.660;23.316;2023-09-30T01:34:35;22.60;;;6.90;;
6089;SDS011;3073;42.660;23.316;2023-09-30T01:37:02;27.03;;;7.70;;
6089;SDS011;3073;42.660;23.316;2023-09-30T01:39:31;17.13;;;7.00;;
6089;SDS011;3073;42.660;23.316;2023-09-30T01:41:59;17.83;;;7.23;;
6089;SDS011;3073;42.660;23.316;2023-09-30T01:44:25;18.60;;;6.83;;
6089;SDS011;3073;42.660;23.316;2023-09-30T01:46:52;24.83;;;7.50;;
6089;SDS011;3073;42.660;23.316;2023-09-30T01:49:19;19.67;;;7.67;;
6089;SDS011;3073;42.660;23.316;2023-09-30T01:51:49;18.40;;;8.23;;
6089;SDS011;3073;42.660;23.316;2023-09-30T01:54:15;12.23;;;7.67;;
6089;SDS011;3073;42.660;23.316;2023-09-30T01:56:44;20.33;;;9.50;;
6089;SDS011;3073;42.660;23.316;2023-09-30T01:59:10;16.20;;;6.83;;
6089;SDS011;3073;42.660;23.316;2023-09-30T02:01:37;15.90;;;7.27;;
6089;SDS011;3073;42.660;23.316;2023-09-30T02:04:04;15.90;;;7.10;;
6089;SDS011;3073;42.660;23.316;2023-09-30T02:06:32;22.03;;;8.50;;
6089;SDS011;3073;42.660;23.316;2023-09-30T02:08:59;20.23;;;7.30;;
6089;SDS011;3073;42.660;23.316;2023-09-30T02:11:26;15.90;;;7.97;;
6089;SDS011;3073;42.660;23.316;2023-09-30T02:13:55;16.43;;;7.40;;
6089;SDS011;3073;42.660;23.316;2023-09-30T02:16:22;12.03;;;6.47;;
6089;SDS011;3073;42.660;23.316;2023-09-30T02:18:49;14.50;;;5.87;;
6089;SDS011;3073;42.660;23.316;2023-09-30T02:21:17;14.27;;;7.10;;
6089;SDS011;3073;42.660;23.316;2023-09-30T02:23:43;19.40;;;7.03;;
6089;SDS011;3073;42.660;23.316;2023-09-30T02:26:13;16.70;;;7.60;;
6089;SDS011;3073;42.660;23.316;2023-09-30T02:28:40;15.23;;;7.60;;
6089;SDS011;3073;42.660;23.316;2023-09-30T02:31:08;13.57;;;7.87;;
6089;SDS011;3073;42.660;23.316;2023-09-30T02:33:35;12.53;;;8.87;;
6089;SDS011;3073;42.660;23.316;2023-09-30T02:36:02;16.33;;;7.80;;
6089;SDS011;3073;42.660;23.316;2023-09-30T02:38:31;18.47;;;7.27;;
6089;SDS011;3073;42.660;23.316;2023-09-30T02:40:58;11.07;;;7.73;;
6089;SDS011;3073;42.660;23.316;2023-09-30T02:43:27;16.53;;;7.47;;
6089;SDS011;3073;42.660;23.316;2023-09-30T02:45:55;17.57;;;8.17;;
6089;SDS011;3073;42.660;23.316;2023-09-30T02:48:23;16.30;;;7.73;;
6089;SDS011;3073;42.660;23.316;2023-09-30T02:50:50;21.17;;;7.20;;
6089;SDS011;3073;42.660;23.316;2023-09-30T02:53:16;23.27;;;7.87;;
6089;SDS011;3073;42.660;23.316;2023-09-30T02:55:43;16.23;;;7.20;;
6089;SDS011;3073;42.660;23.316;2023-09-30T02:58:10;16.57;;;7.00;;
6089;SDS011;3073;42.660;23.316;2023-09-30T03:00:37;18.40;;;7.43;;
6089;SDS011;3073;42.660;23.316;2023-09-30T03:03:04;16.70;;;8.20;;
6089;SDS011;3073;42.660;23.316;2023-09-30T03:05:32;18.83;;;7.10;;
6089;SDS011;3073;42.660;23.316;2023-09-30T03:07:59;19.60;;;7.20;;
6089;SDS011;3073;42.660;23.316;2023-09-30T03:10:27;27.07;;;7.37;;
6089;SDS011;3073;42.660;23.316;2023-09-30T03:12:54;13.27;;;7.10;;
6089;SDS011;3073;42.660;23.316;2023-09-30T03:15:21;13.97;;;7.70;;
6089;SDS011;3073;42.660;23.316;2023-09-30T03:17:50;15.33;;;8.57;;
6089;SDS011;3073;42.660;23.316;2023-09-30T03:20:18;18.37;;;7.77;;
6089;SDS011;3073;42.660;23.316;2023-09-30T03:22:47;21.73;;;8.50;;
6089;SDS011;3073;42.660;23.316;2023-09-30T03:25:15;18.83;;;7.00;;
6089;SDS011;3073;42.660;23.316;2023-09-30T03:27:43;18.73;;;7.87;;
6089;SDS011;3073;42.660;23.316;2023-09-30T03:30:11;23.97;;;8.87;;
6089;SDS011;3073;42.660;23.316;2023-09-30T03:32:40;21.73;;;7.80;;
6089;SDS011;3073;42.660;23.316;2023-09-30T03:35:08;15.43;;;9.67;;
6089;SDS011;3073;42.660;23.316;2023-09-30T03:37:40;14.30;;;8.10;;
6089;SDS011;3073;42.660;23.316;2023-09-30T03:40:09;20.40;;;8.93;;
6089;SDS011;3073;42.660;23.316;2023-09-30T03:42:39;20.67;;;8.20;;
6089;SDS011;3073;42.660;23.316;2023-09-30T03:45:08;16.00;;;8.83;;
6089;SDS011;3073;42.660;23.316;2023-09-30T03:47:35;16.87;;;7.73;;
6089;SDS011;3073;42.660;23.316;2023-09-30T03:50:03;26.77;;;7.83;;
6089;SDS011;3073;42.660;23.316;2023-09-30T03:52:37;21.63;;;8.10;;
6089;SDS011;3073;42.660;23.316;2023-09-30T03:55:05;19.00;;;8.23;;
6089;SDS011;3073;42.660;23.316;2023-09-30T03:57:38;14.03;;;7.90;;
6089;SDS011;3073;42.660;23.316;2023-09-30T04:00:06;23.43;;;8.10;;
6089;SDS011;3073;42.660;23.316;2023-09-30T04:02:37;17.13;;;8.77;;
6089;SDS011;3073;42.660;23.316;2023-09-30T04:05:04;15.40;;;8.20;;
6089;SDS011;3073;42.660;23.316;2023-09-30T04:07:32;30.73;;;9.10;;
6089;SDS011;3073;42.660;23.316;2023-09-30T04:10:01;22.00;;;9.10;;
6089;SDS011;3073;42.660;23.316;2023-09-30T04:12:29;15.27;;;8.20;;
6089;SDS011;3073;42.660;23.316;2023-09-30T04:15:02;13.80;;;7.90;;
6089;SDS011;3073;42.660;23.316;2023-09-30T04:17:30;13.30;;;8.13;;
6089;SDS011;3073;42.660;23.316;2023-09-30T04:19:59;26.53;;;9.73;;
6089;SDS011;3073;42.660;23.316;2023-09-30T04:22:26;23.03;;;11.40;;
6089;SDS011;3073;42.660;23.316;2023-09-30T04:24:54;18.90;;;8.60;;
6089;SDS011;3073;42.660;23.316;2023-09-30T04:27:21;19.43;;;9.70;;
6089;SDS011;3073;42.660;23.316;2023-09-30T04:29:48;23.67;;;8.83;;
6089;SDS011;3073;42.660;23.316;2023-09-30T04:32:17;21.60;;;10.23;;
6089;SDS011;3073;42.660;23.316;2023-09-30T04:34:44;19.60;;;8.97;;
6089;SDS011;3073;42.660;23.316;2023-09-30T04:37:15;18.70;;;9.33;;
6089;SDS011;3073;42.660;23.316;2023-09-30T04:39:42;13.10;;;8.67;;
6089;SDS011;3073;42.660;23.316;2023-09-30T04:42:09;22.77;;;9.17;;
6089;SDS011;3073;42.660;23.316;2023-09-30T04:44:37;21.10;;;8.90;;
6089;SDS011;3073;42.660;23.316;2023-09-30T04:47:05;19.43;;;9.27;;
6089;SDS011;3073;42.660;23.316;2023-09-30T04:49:33;14.57;;;8.10;;
6089;SDS011;3073;42.660;23.316;2023-09-30T04:52:00;18.70;;;7.63;;
6089;SDS011;3073;42.660;23.316;2023-09-30T04:54:27;29.60;;;8.83;;
6089;SDS011;3073;42.660;23.316;2023-09-30T04:56:55;26.40;;;10.33;;
6089;SDS011;3073;42.660;23.316;2023-09-30T04:59:22;12.17;;;8.10;;
6089;SDS011;3073;42.660;23.316;2023-09-30T05:01:50;16.73;;;8.60;;
6089;SDS011;3073;42.660;23.316;2023-09-30T05:04:18;21.83;;;9.23;;
6089;SDS011;3073;42.660;23.316;2023-09-30T05:06:46;19.27;;;8.47;;
6089;SDS011;3073;42.660;23.316;2023-09-30T05:09:13;27.13;;;10.43;;
6089;SDS011;3073;42.660;23.316;2023-09-30T05:11:42;27.43;;;9.63;;
6089;SDS011;3073;42.660;23.316;2023-09-30T05:14:12;36.70;;;9.70;;
6089;SDS011;3073;42.660;23.316;2023-09-30T05:16:39;14.83;;;10.50;;
6089;SDS011;3073;42.660;23.316;2023-09-30T05:19:08;18.30;;;8.80;;
6089;SDS011;3073;42.660;23.316;2023-09-30T05:21:35;24.17;;;9.73;;
6089;SDS011;3073;42.660;23.316;2023-09-30T05:24:04;17.70;;;8.63;;
6089;SDS011;3073;42.660;23.316;2023-09-30T05:26:32;29.20;;;9.70;;
6089;SDS011;3073;42.660;23.316;2023-09-30T05:28:59;14.77;;;8.77;;
6089;SDS011;3073;42.660;23.316;2023-09-30T05:31:25;23.23;;;9.90;;
6089;SDS011;3073;42.660;23.316;2023-09-30T05:33:52;22.73;;;9.03;;
6089;SDS011;3073;42.660;23.316;2023-09-30T05:36:20;23.90;;;12.67;;
6089;SDS011;3073;42.660;23.316;2023-09-30T05:38:47;14.27;;;9.57;;
6089;SDS011;3073;42.660;23.316;2023-09-30T05:41:15;19.27;;;10.53;;
6089;SDS011;3073;42.660;23.316;2023-09-30T05:43:43;32.47;;;10.40;;
6089;SDS011;3073;42.660;23.316;2023-09-30T05:46:10;21.57;;;8.67;;
6089;SDS011;3073;42.660;23.316;2023-09-30T05:48:38;14.57;;;9.50;;
6089;SDS011;3073;42.660;23.316;2023-09-30T05:51:05;30.37;;;9.70;;
6089;SDS011;3073;42.660;23.316;2023-09-30T05:53:32;27.87;;;11.50;;
6089;SDS011;3073;42.660;23.316;2023-09-30T05:55:59;18.13;;;9.57;;
6089;SDS011;3073;42.660;23.316;2023-09-30T05:58:27;22.43;;;9.20;;
6089;SDS011;3073;42.660;23.316;2023-09-30T06:00:54;19.47;;;9.67;;
6089;SDS011;3073;42.660;23.316;2023-09-30T06:03:20;18.23;;;9.07;;
6089;SDS011;3073;42.660;23.316;2023-09-30T06:05:47;23.83;;;9.53;;
6089;SDS011;3073;42.660;23.316;2023-09-30T06:08:14;28.50;;;9.63;;
6089;SDS011;3073;42.660;23.316;2023-09-30T06:10:41;17.90;;;10.67;;
6089;SDS011;3073;42.660;23.316;2023-09-30T06:13:09;18.03;;;10.00;;
6089;SDS011;3073;42.660;23.316;2023-09-30T06:15:38;26.73;;;9.70;;
6089;SDS011;3073;42.660;23.316;2023-09-30T06:18:08;21.30;;;10.63;;
6089;SDS011;3073;42.660;23.316;2023-09-30T06:20:38;25.10;;;10.43;;
6089;SDS011;3073;42.660;23.316;2023-09-30T06:23:06;18.43;;;10.53;;
6089;SDS011;3073;42.660;23.316;2023-09-30T06:25:33;20.67;;;10.10;;
6089;SDS011;3073;42.660;23.316;2023-09-30T06:28:00;19.15;;;10.80;;
6089;SDS011;3073;42.660;23.316;2023-09-30T06:30:28;25.77;;;11.27;;
6089;SDS011;3073;42.660;23.316;2023-09-30T06:32:57;28.10;;;11.70;;
6089;SDS011;3073;42.660;23.316;2023-09-30T06:35:25;23.37;;;9.83;;
6089;SDS011;3073;42.660;23.316;2023-09-30T06:37:52;20.93;;;9.60;;
6089;SDS011;3073;42.660;23.316;2023-09-30T06:40:19;31.93;;;9.93;;
6089;SDS011;3073;42.660;23.316;2023-09-30T06:42:45;30.80;;;10.47;;
6089;SDS011;3073;42.660;23.316;2023-09-30T06:45:12;20.73;;;9.20;;
6089;SDS011;3073;42.660;23.316;2023-09-30T06:47:41;25.33;;;8.23;;
6089;SDS011;3073;42.660;23.316;2023-09-30T06:50:10;15.60;;;8.90;;
6089;SDS011;3073;42.660;23.316;2023-09-30T06:52:41;18.73;;;8.13;;
6089;SDS011;3073;42.660;23.316;2023-09-30T06:55:10;20.73;;;8.63;;
6089;SDS011;3073;42.660;23.316;2023-09-30T06:57:39;15.43;;;7.17;;
6089;SDS011;3073;42.660;23.316;2023-09-30T07:00:07;21.57;;;8.20;;
6089;SDS011;3073;42.660;23.316;2023-09-30T07:02:35;27.63;;;8.97;;
6089;SDS011;3073;42.660;23.316;2023-09-30T07:05:05;19.93;;;9.03;;
6089;SDS011;3073;42.660;23.316;2023-09-30T07:07:33;20.67;;;7.90;;
6089;SDS011;3073;42.660;23.316;2023-09-30T07:10:00;18.87;;;8.87;;
6089;SDS011;3073;42.660;23.316;2023-09-30T07:12:27;36.03;;;8.30;;
6089;SDS011;3073;42.660;23.316;2023-09-30T07:14:55;17.33;;;7.47;;
6089;SDS011;3073;42.660;23.316;2023-09-30T07:17:22;17.03;;;7.43;;
6089;SDS011;3073;42.660;23.316;2023-09-30T07:19:49;15.13;;;7.60;;
6089;SDS011;3073;42.660;23.316;2023-09-30T07:22:16;16.43;;;7.07;;
6089;SDS011;3073;42.660;23.316;2023-09-30T07:24:44;23.47;;;7.10;;
6089;SDS011;3073;42.660;23.316;2023-09-30T07:27:11;19.17;;;7.30;;
6089;SDS011;3073;42.660;23.316;2023-09-30T07:29:38;10.87;;;5.97;;
6089;SDS011;3073;42.660;23.316;2023-09-30T07:32:06;11.48;;;6.20;;
6089;SDS011;3073;42.660;23.316;2023-09-30T07:34:34;18.03;;;6.77;;
6089;SDS011;3073;42.660;23.316;2023-09-30T07:37:01;12.25;;;6.20;;
6089;SDS011;3073;42.660;23.316;2023-09-30T07:39:29;12.95;;;6.47;;
6089;SDS011;3073;42.660;23.316;2023-09-30T07:41:57;18.88;;;7.82;;
6089;SDS011;3073;42.660;23.316;2023-09-30T07:44:24;15.48;;;6.10;;
6089;SDS011;3073;42.660;23.316;2023-09-30T07:46:51;15.18;;;5.57;;
6089;SDS011;3073;42.660;23.316;2023-09-30T07:49:18;18.55;;;5.35;;
6089;SDS011;3073;42.660;23.316;2023-09-30T07:51:45;21.83;;;7.32;;
6089;SDS011;3073;42.660;23.316;2023-09-30T07:54:12;20.25;;;6.70;;
6089;SDS011;3073;42.660;23.316;2023-09-30T07:56:39;17.85;;;5.88;;
6089;SDS011;3073;42.660;23.316;2023-09-30T07:59:07;17.33;;;5.78;;
6089;SDS011;3073;42.660;23.316;2023-09-30T08:01:35;15.43;;;6.35;;
6089;SDS011;3073;42.660;23.316;2023-09-30T08:04:02;12.43;;;5.82;;
6089;SDS011;3073;42.660;23.316;2023-09-30T08:06:29;20.15;;;6.55;;
6089;SDS011;3073;42.660;23.316;2023-09-30T08:08:56;16.35;;;5.55;;
6089;SDS011;3073;42.660;23.316;2023-09-30T08:11:23;9.90;;;5.65;;
6089;SDS011;3073;42.660;23.316;2023-09-30T08:13:52;9.13;;;5.13;;
6089;SDS011;3073;42.660;23.316;2023-09-30T08:16:21;12.70;;;5.72;;
6089;SDS011;3073;42.660;23.316;2023-09-30T08:18:48;16.92;;;5.20;;
6089;SDS011;3073;42.660;23.316;2023-09-30T08:21:14;11.35;;;5.78;;
6089;SDS011;3073;42.660;23.316;2023-09-30T08:23:41;16.33;;;6.18;;
6089;SDS011;3073;42.660;23.316;2023-09-30T08:26:09;13.93;;;5.82;;
6089;SDS011;3073;42.660;23.316;2023-09-30T08:28:36;13.23;;;5.80;;
6089;SDS011;3073;42.660;23.316;2023-09-30T08:31:03;20.25;;;5.63;;
6089;SDS011;3073;42.660;23.316;2023-09-30T08:33:32;16.38;;;5.82;;
6089;SDS011;3073;42.660;23.316;2023-09-30T08:36:02;15.88;;;5.95;;
6089;SDS011;3073;42.660;23.316;2023-09-30T08:38:32;8.70;;;5.10;;
6089;SDS011;3073;42.660;23.316;2023-09-30T08:41:00;15.15;;;5.38;;
6089;SDS011;3073;42.660;23.316;2023-09-30T08:43:28;18.13;;;7.43;;
6089;SDS011;3073;42.660;23.316;2023-09-30T08:45:57;16.63;;;6.32;;
6089;SDS011;3073;42.660;23.316;2023-09-30T08:48:24;17.00;;;6.05;;
6089;SDS011;3073;42.660;23.316;2023-09-30T08:50:55;10.57;;;6.53;;
6089;SDS011;3073;42.660;23.316;2023-09-30T08:53:22;17.95;;;5.75;;
6089;SDS011;3073;42.660;23.316;2023-09-30T08:55:50;15.88;;;6.97;;
6089;SDS011;3073;42.660;23.316;2023-09-30T08:58:19;11.20;;;6.57;;
6089;SDS011;3073;42.660;23.316;2023-09-30T09:00:48;19.50;;;7.22;;
6089;SDS011;3073;42.660;23.316;2023-09-30T09:03:18;18.35;;;7.22;;
6089;SDS011;3073;42.660;23.316;2023-09-30T09:05:46;16.92;;;6.50;;
6089;SDS011;3073;42.660;23.316;2023-09-30T09:08:14;18.73;;;6.75;;
6089;SDS011;3073;42.660;23.316;2023-09-30T09:10:53;9.35;;;6.70;;
6089;SDS011;3073;42.660;23.316;2023-09-30T09:13:22;13.98;;;8.88;;
6089;SDS011;3073;42.660;23.316;2023-09-30T09:15:51;19.33;;;8.70;;
6089;SDS011;3073;42.660;23.316;2023-09-30T09:18:33;14.25;;;8.20;;
6089;SDS011;3073;42.660;23.316;2023-09-30T09:21:10;13.57;;;8.85;;
6089;SDS011;3073;42.660;23.316;2023-09-30T09:23:40;24.25;;;8.95;;
6089;SDS011;3073;42.660;23.316;2023-09-30T09:26:09;21.58;;;7.80;;
6089;SDS011;3073;42.660;23.316;2023-09-30T09:28:37;20.77;;;8.25;;
6089;SDS011;3073;42.660;23.316;2023-09-30T09:31:20;14.70;;;7.78;;
6089;SDS011;3073;42.660;23.316;2023-09-30T09:33:49;17.70;;;7.63;;
6089;SDS011;3073;42.660;23.316;2023-09-30T09:36:17;18.23;;;8.02;;
6089;SDS011;3073;42.660;23.316;2023-09-30T09:38:46;21.33;;;6.97;;
6089;SDS011;3073;42.660;23.316;2023-09-30T09:41:15;16.05;;;6.72;;
6089;SDS011;3073;42.660;23.316;2023-09-30T09:43:43;12.05;;;6.50;;
6089;SDS011;3073;42.660;23.316;2023-09-30T09:46:10;18.40;;;6.65;;
6089;SDS011;3073;42.660;23.316;2023-09-30T09:48:39;13.70;;;7.50;;
6089;SDS011;3073;42.660;23.316;2023-09-30T09:51:06;25.20;;;6.20;;
6089;SDS011;3073;42.660;23.316;2023-09-30T09:53:37;16.50;;;6.10;;
6089;SDS011;3073;42.660;23.316;2023-09-30T09:56:08;12.57;;;6.20;;
6089;SDS011;3073;42.660;23.316;2023-09-30T09:58:37;16.27;;;6.75;;
6089;SDS011;3073;42.660;23.316;2023-09-30T10:01:06;16.75;;;7.00;;
6089;SDS011;3073;42.660;23.316;2023-09-30T10:03:37;13.90;;;5.95;;
6089;SDS011;3073;42.660;23.316;2023-09-30T10:06:05;10.65;;;5.50;;
6089;SDS011;3073;42.660;23.316;2023-09-30T10:08:36;10.63;;;6.05;;
6089;SDS011;3073;42.660;23.316;2023-09-30T10:11:08;10.30;;;6.07;;
6089;SDS011;3073;42.660;23.316;2023-09-30T10:13:52;10.70;;;5.43;;
6089;SDS011;3073;42.660;23.316;2023-09-30T10:19:17;18.55;;;5.28;;
6089;SDS011;3073;42.660;23.316;2023-09-30T10:24:52;11.38;;;4.50;;
6089;SDS011;3073;42.660;23.316;2023-09-30T10:30:09;12.88;;;5.35;;
6089;SDS011;3073;42.660;23.316;2023-09-30T10:35:46;16.05;;;4.50;;
6089;SDS011;3073;42.660;23.316;2023-09-30T10:41:06;7.63;;;4.07;;
6089;SDS011;3073;42.660;23.316;2023-09-30T10:43:35;7.75;;;3.90;;
6089;SDS011;3073;42.660;23.316;2023-09-30T10:51:45;11.25;;;4.15;;
6089;SDS011;3073;42.660;23.316;2023-09-30T10:54:12;6.05;;;3.60;;
6089;SDS011;3073;42.660;23.316;2023-09-30T10:56:39;10.93;;;3.80;;
6089;SDS011;3073;42.660;23.316;2023-09-30T10:59:08;7.13;;;3.60;;
6089;SDS011;3073;42.660;23.316;2023-09-30T11:01:35;7.57;;;3.78;;
6089;SDS011;3073;42.660;23.316;2023-09-30T11:04:02;10.00;;;4.78;;
6089;SDS011;3073;42.660;23.316;2023-09-30T11:06:34;7.13;;;3.83;;
6089;SDS011;3073;42.660;23.316;2023-09-30T11:09:01;6.03;;;4.05;;
6089;SDS011;3073;42.660;23.316;2023-09-30T11:11:35;7.10;;;3.90;;
6089;SDS011;3073;42.660;23.316;2023-09-30T11:14:23;8.15;;;4.18;;
6089;SDS011;3073;42.660;23.316;2023-09-30T11:16:51;10.50;;;4.20;;
6089;SDS011;3073;42.660;23.316;2023-09-30T11:19:18;8.00;;;3.90;;
6089;SDS011;3073;42.660;23.316;2023-09-30T11:21:47;6.20;;;4.40;;
6089;SDS011;3073;42.660;23.316;2023-09-30T11:24:15;20.15;;;4.50;;
6089;SDS011;3073;42.660;23.316;2023-09-30T11:26:42;9.90;;;4.80;;
6089;SDS011;3073;42.660;23.316;2023-09-30T11:29:10;10.48;;;4.45;;
6089;SDS011;3073;42.660;23.316;2023-09-30T11:31:40;7.40;;;4.32;;
6089;SDS011;3073;42.660;23.316;2023-09-30T11:34:08;5.47;;;3.55;;
6089;SDS011;3073;42.660;23.316;2023-09-30T11:36:37;12.07;;;4.28;;
6089;SDS011;3073;42.660;23.316;2023-09-30T11:39:08;9.20;;;4.47;;
6089;SDS011;3073;42.660;23.316;2023-09-30T11:41:38;10.30;;;4.70;;
6089;SDS011;3073;42.660;23.316;2023-09-30T11:44:07;12.88;;;4.40;;
6089;SDS011;3073;42.660;23.316;2023-09-30T11:46:50;9.77;;;3.75;;
6089;SDS011;3073;42.660;23.316;2023-09-30T11:49:25;21.58;;;4.72;;
6089;SDS011;3073;42.660;23.316;2023-09-30T11:51:54;5.75;;;4.07;;
6089;SDS011;3073;42.660;23.316;2023-09-30T11:54:21;11.80;;;4.38;;
6089;SDS011;3073;42.660;23.316;2023-09-30T11:56:49;11.20;;;4.50;;
6089;SDS011;3073;42.660;23.316;2023-09-30T11:59:17;13.80;;;5.72;;
6089;SDS011;3073;42.660;23.316;2023-09-30T12:01:47;7.68;;;4.60;;
6089;SDS011;3073;42.660;23.316;2023-09-30T12:04:16;14.68;;;4.95;;
6089;SDS011;3073;42.660;23.316;2023-09-30T12:06:44;9.70;;;4.85;;
6089;SDS011;3073;42.660;23.316;2023-09-30T12:09:15;12.13;;;4.65;;
6089;SDS011;3073;42.660;23.316;2023-09-30T12:11:47;11.90;;;4.50;;
6089;SDS011;3073;42.660;23.316;2023-09-30T12:14:14;8.07;;;5.05;;
6089;SDS011;3073;42.660;23.316;2023-09-30T12:16:41;10.02;;;4.93;;
6089;SDS011;3073;42.660;23.316;2023-09-30T12:19:10;12.48;;;4.93;;
6089;SDS011;3073;42.660;23.316;2023-09-30T12:21:40;10.45;;;4.78;;
6089;SDS011;3073;42.660;23.316;2023-09-30T12:24:07;17.58;;;5.50;;
6089;SDS011;3073;42.660;23.316;2023-09-30T12:26:39;15.95;;;4.72;;
6089;SDS011;3073;42.660;23.316;2023-09-30T12:29:06;12.43;;;4.82;;
6089;SDS011;3073;42.660;23.316;2023-09-30T12:31:34;13.40;;;5.40;;
6089;SDS011;3073;42.660;23.316;2023-09-30T12:34:01;12.00;;;5.40;;
6089;SDS011;3073;42.660;23.316;2023-09-30T12:36:28;8.38;;;4.60;;
6089;SDS011;3073;42.660;23.316;2023-09-30T12:38:56;9.82;;;4.50;;
6089;SDS011;3073;42.660;23.316;2023-09-30T12:41:23;10.85;;;5.22;;
6089;SDS011;3073;42.660;23.316;2023-09-30T12:43:50;8.60;;;5.13;;
6089;SDS011;3073;42.660;23.316;2023-09-30T12:46:18;10.75;;;5.07;;
6089;SDS011;3073;42.660;23.316;2023-09-30T12:48:45;10.93;;;4.82;;
6089;SDS011;3073;42.660;23.316;2023-09-30T12:51:13;10.95;;;5.30;;
6089;SDS011;3073;42.660;23.316;2023-09-30T12:53:40;7.35;;;4.60;;
6089;SDS011;3073;42.660;23.316;2023-09-30T12:56:08;18.85;;;5.00;;
6089;SDS011;3073;42.660;23.316;2023-09-30T12:58:35;11.52;;;5.65;;
6089;SDS011;3073;42.660;23.316;2023-09-30T13:01:03;16.80;;;5.65;;
6089;SDS011;3073;42.660;23.316;2023-09-30T13:03:31;13.75;;;5.40;;
6089;SDS011;3073;42.660;23.316;2023-09-30T13:05:58;6.25;;;5.65;;
6089;SDS011;3073;42.660;23.316;2023-09-30T13:08:25;17.48;;;6.07;;
6089;SDS011;3073;42.660;23.316;2023-09-30T13:10:52;13.00;;;4.97;;
6089;SDS011;3073;42.660;23.316;2023-09-30T13:13:20;14.02;;;4.80;;
6089;SDS011;3073;42.660;23.316;2023-09-30T13:15:47;16.42;;;5.43;;
6089;SDS011;3073;42.660;23.316;2023-09-30T13:18:14;18.48;;;5.30;;
6089;SDS011;3073;42.660;23.316;2023-09-30T13:20:41;19.38;;;5.28;;
6089;SDS011;3073;42.660;23.316;2023-09-30T13:23:07;7.90;;;5.10;;
6089;SDS011;3073;42.660;23.316;2023-09-30T13:25:35;23.52;;;4.95;;
6089;SDS011;3073;42.660;23.316;2023-09-30T13:28:02;10.93;;;5.10;;
6089;SDS011;3073;42.660;23.316;2023-09-30T13:30:31;10.77;;;5.63;;
6089;SDS011;3073;42.660;23.316;2023-09-30T13:32:58;12.02;;;5.32;;
6089;SDS011;3073;42.660;23.316;2023-09-30T13:35:25;9.23;;;6.03;;
6089;SDS011;3073;42.660;23.316;2023-09-30T13:37:52;13.32;;;5.43;;
6089;SDS011;3073;42.660;23.316;2023-09-30T13:40:19;14.75;;;5.70;;
6089;SDS011;3073;42.660;23.316;2023-09-30T13:42:46;7.80;;;5.38;;
6089;SDS011;3073;42.660;23.316;2023-09-30T13:45:12;7.25;;;5.47;;
6089;SDS011;3073;42.660;23.316;2023-09-30T13:47:43;11.95;;;6.00;;
6089;SDS011;3073;42.660;23.316;2023-09-30T13:50:10;8.82;;;5.05;;
6089;SDS011;3073;42.660;23.316;2023-09-30T13:52:37;12.52;;;5.68;;
6089;SDS011;3073;42.660;23.316;2023-09-30T13:55:04;10.77;;;5.97;;
6089;SDS011;3073;42.660;23.316;2023-09-30T13:57:31;10.25;;;5.68;;
6089;SDS011;3073;42.660;23.316;2023-09-30T13:59:58;14.73;;;5.57;;
6089;SDS011;3073;42.660;23.316;2023-09-30T14:02:25;11.25;;;5.47;;
6089;SDS011;3073;42.660;23.316;2023-09-30T14:04:53;12.05;;;5.25;;
6089;SDS011;3073;42.660;23.316;2023-09-30T14:07:21;6.32;;;4.60;;
6089;SDS011;3073;42.660;23.316;2023-09-30T14:09:48;12.10;;;4.47;;
6089;SDS011;3073;42.660;23.316;2023-09-30T14:12:15;12.15;;;4.88;;
6089;SDS011;3073;42.660;23.316;2023-09-30T14:14:42;12.77;;;5.80;;
6089;SDS011;3073;42.660;23.316;2023-09-30T14:17:09;6.50;;;5.35;;
6089;SDS011;3073;42.660;23.316;2023-09-30T14:19:38;9.90;;;5.63;;
6089;SDS011;3073;42.660;23.316;2023-09-30T14:22:07;10.27;;;5.30;;
6089;SDS011;3073;42.660;23.316;2023-09-30T14:24:35;13.20;;;5.22;;
6089;SDS011;3073;42.660;23.316;2023-09-30T14:27:02;16.02;;;5.55;;
6089;SDS011;3073;42.660;23.316;2023-09-30T14:29:30;8.93;;;5.30;;
6089;SDS011;3073;42.660;23.316;2023-09-30T14:31:57;15.30;;;5.68;;
6089;SDS011;3073;42.660;23.316;2023-09-30T14:34:24;10.45;;;5.72;;
6089;SDS011;3073;42.660;23.316;2023-09-30T14:36:51;11.30;;;5.30;;
6089;SDS011;3073;42.660;23.316;2023-09-30T14:39:20;8.70;;;4.80;;
6089;SDS011;3073;42.660;23.316;2023-09-30T14:41:46;11.27;;;5.03;;
6089;SDS011;3073;42.660;23.316;2023-09-30T14:44:13;19.40;;;5.60;;
6089;SDS011;3073;42.660;23.316;2023-09-30T14:46:40;14.25;;;6.18;;
6089;SDS011;3073;42.660;23.316;2023-09-30T14:49:08;12.50;;;5.00;;
6089;SDS011;3073;42.660;23.316;2023-09-30T14:51:35;9.95;;;4.68;;
6089;SDS011;3073;42.660;23.316;2023-09-30T14:54:03;7.90;;;4.82;;
6089;SDS011;3073;42.660;23.316;2023-09-30T14:56:32;7.90;;;4.53;;
6089;SDS011;3073;42.660;23.316;2023-09-30T14:58:59;10.13;;;4.75;;
6089;SDS011;3073;42.660;23.316;2023-09-30T15:01:26;17.25;;;4.97;;
6089;SDS011;3073;42.660;23.316;2023-09-30T15:03:54;9.90;;;4.90;;
6089;SDS011;3073;42.660;23.316;2023-09-30T15:06:23;11.23;;;4.28;;
6089;SDS011;3073;42.660;23.316;2023-09-30T15:08:50;11.75;;;4.72;;
6089;SDS011;3073;42.660;23.316;2023-09-30T15:11:17;18.05;;;4.97;;
6089;SDS011;3073;42.660;23.316;2023-09-30T15:13:46;10.57;;;4.82;;